Terminal Aerodrome Forecast
Issued by NWS St Louis, MO

Home | Current Version | Previous Version | Text Only | Print | Product List | Glossary On
Versions: 1 2 3 4 5 6 7 8 9 10 11 12 13 14 15 16 17 18 19 20 21 22 23 24 25 26
513
FTUS43 KLSX 261444 AAA
TAFSTL
TAF AMD
KSTL 261444Z 2615/2718 VRB04KT P6SM BKN020
     FM261700 05004KT P6SM SCT035
     FM270000 09005KT P6SM SKC=

USA.gov is the U.S. government's official web portal to all federal, state and local government web resources and services.